createdAt,value
2022-12-23T00:00:19.986Z,53
2022-12-23T00:01:50.473Z,53
2022-12-23T00:03:20.886Z,53
2022-12-23T00:04:51.159Z,53
2022-12-23T00:06:53.588Z,53
2022-12-23T00:08:23.786Z,53
2022-12-23T00:09:54.284Z,53
2022-12-23T00:11:56.656Z,53
2022-12-23T00:13:26.994Z,53
2022-12-23T00:14:57.241Z,53
2022-12-23T00:16:59.656Z,53
2022-12-23T00:18:29.894Z,53
2022-12-23T00:20:00.292Z,53
2022-12-23T00:21:30.615Z,53
2022-12-23T00:23:01.035Z,53
2022-12-23T00:24:31.419Z,53
2022-12-23T00:26:01.776Z,53
2022-12-23T00:27:37.254Z,53
2022-12-23T00:29:02.535Z,53
2022-12-23T00:30:32.980Z,53
2022-12-23T00:32:03.555Z,53
2022-12-23T00:33:33.794Z,53
2022-12-23T00:35:04.037Z,53
2022-12-23T00:37:06.470Z,53
2022-12-23T00:38:36.914Z,53
2022-12-23T00:40:07.226Z,54
2022-12-23T00:41:37.570Z,53
2022-12-23T00:43:07.977Z,53
2022-12-23T00:44:38.324Z,53
2022-12-23T00:46:40.715Z,53
2022-12-23T00:48:11.167Z,53
2022-12-23T00:49:41.510Z,53
2022-12-23T00:51:11.875Z,53
2022-12-23T00:52:42.189Z,54
2022-12-23T00:54:12.614Z,54
2022-12-23T00:55:42.974Z,54
2022-12-23T00:57:13.353Z,54
2022-12-23T00:58:43.786Z,54
2022-12-23T01:00:14.246Z,54
2022-12-23T01:02:16.843Z,54
2022-12-23T01:03:47.141Z,55
2022-12-23T01:05:17.429Z,54
2022-12-23T01:06:47.863Z,54
2022-12-23T01:08:18.254Z,54
2022-12-23T01:09:48.489Z,55
2022-12-23T01:11:18.919Z,54
2022-12-23T01:12:49.292Z,54
2022-12-23T01:14:19.641Z,55
2022-12-23T01:15:50.066Z,54
2022-12-23T01:17:20.427Z,54
2022-12-23T01:18:50.704Z,55
2022-12-23T01:20:20.979Z,55
2022-12-23T01:21:51.362Z,55
2022-12-23T01:23:21.771Z,55
2022-12-23T01:24:51.951Z,55
2022-12-23T01:26:22.404Z,55
2022-12-23T01:28:24.822Z,55
2022-12-23T01:29:55.239Z,55
2022-12-23T01:31:25.681Z,56
2022-12-23T01:32:56.006Z,56
2022-12-23T01:34:29.783Z,55
2022-12-23T01:35:56.860Z,55
2022-12-23T01:37:27.362Z,55
2022-12-23T01:38:57.616Z,55
2022-12-23T01:40:28.023Z,55
2022-12-23T01:41:58.446Z,55
2022-12-23T01:43:28.678Z,56
2022-12-23T01:45:31.266Z,55
2022-12-23T01:47:01.612Z,55
2022-12-23T01:48:32.022Z,55
2022-12-23T01:50:02.764Z,55
2022-12-23T01:51:32.803Z,55
2022-12-23T01:53:07.605Z,55
2022-12-23T01:54:33.627Z,55
2022-12-23T01:56:04.079Z,55
2022-12-23T01:58:06.512Z,55
2022-12-23T01:59:36.826Z,55
2022-12-23T02:01:07.391Z,55
2022-12-23T02:03:09.850Z,55
2022-12-23T02:04:40.155Z,55
2022-12-23T02:06:10.559Z,56
2022-12-23T02:07:40.852Z,56
2022-12-23T02:09:11.311Z,56
2022-12-23T02:10:41.705Z,56
2022-12-23T02:12:12.038Z,56
2022-12-23T02:13:42.453Z,56
2022-12-23T02:15:12.874Z,56
2022-12-23T02:16:43.274Z,56
2022-12-23T02:18:13.608Z,56
2022-12-23T02:19:44.024Z,56
2022-12-23T02:21:14.349Z,56
2022-12-23T02:22:44.811Z,56
2022-12-23T02:24:47.237Z,56
2022-12-23T02:26:17.648Z,56
2022-12-23T02:27:48.003Z,56
2022-12-23T02:29:18.392Z,56
2022-12-23T02:30:48.891Z,56
2022-12-23T02:32:19.259Z,56
2022-12-23T02:34:21.710Z,57
2022-12-23T02:35:52.148Z,56
2022-12-23T02:37:22.641Z,57
2022-12-23T02:39:25.009Z,56
2022-12-23T02:40:55.423Z,56
2022-12-23T02:42:25.757Z,56
2022-12-23T02:43:56.167Z,56
2022-12-23T02:45:26.575Z,56
2022-12-23T02:46:56.947Z,56
2022-12-23T02:48:59.365Z,56
2022-12-23T02:50:29.793Z,56
2022-12-23T02:52:00.171Z,56
2022-12-23T02:53:30.542Z,56
2022-12-23T02:55:00.836Z,56
2022-12-23T02:56:31.156Z,56
2022-12-23T02:58:01.615Z,56
2022-12-23T02:59:32.013Z,56
2022-12-23T03:01:02.464Z,56
2022-12-23T03:02:32.922Z,56
2022-12-23T03:04:03.226Z,56
2022-12-23T03:05:33.595Z,56
2022-12-23T03:07:07.609Z,56
2022-12-23T03:08:34.433Z,56
2022-12-23T03:10:04.710Z,56
2022-12-23T03:11:35.028Z,56
2022-12-23T03:13:05.388Z,56
2022-12-23T03:14:35.812Z,56
2022-12-23T03:16:06.302Z,56
2022-12-23T03:17:36.572Z,56
2022-12-23T03:19:39.012Z,56
2022-12-23T03:21:09.403Z,56
2022-12-23T03:22:39.719Z,56
2022-12-23T03:24:10.076Z,56
2022-12-23T03:25:40.467Z,56
2022-12-23T03:27:10.888Z,56
2022-12-23T03:28:41.236Z,56
2022-12-23T03:30:11.619Z,56
2022-12-23T03:31:42.113Z,56
2022-12-23T03:33:12.308Z,56
2022-12-23T03:34:42.683Z,55
2022-12-23T03:36:13.094Z,55
2022-12-23T03:37:43.562Z,55
2022-12-23T03:39:13.959Z,55
2022-12-23T03:40:44.377Z,55
2022-12-23T03:42:14.831Z,55
2022-12-23T03:43:50.585Z,55
2022-12-23T03:45:47.514Z,55
2022-12-23T03:47:49.969Z,55
2022-12-23T03:49:20.343Z,55
2022-12-23T03:50:50.790Z,55
2022-12-23T03:52:21.891Z,55
2022-12-23T03:53:51.656Z,55
2022-12-23T03:55:22.044Z,55
2022-12-23T03:56:52.352Z,55
2022-12-23T03:58:22.687Z,55
2022-12-23T03:59:53.105Z,55
2022-12-23T04:01:23.591Z,55
2022-12-23T04:02:54.033Z,55
2022-12-23T04:04:24.511Z,55
2022-12-23T04:05:54.896Z,55
2022-12-23T04:07:25.273Z,55
2022-12-23T04:08:55.652Z,55
2022-12-23T04:10:58.089Z,55
2022-12-23T04:12:28.399Z,55
2022-12-23T04:13:58.776Z,55
2022-12-23T04:15:29.127Z,55
2022-12-23T04:16:59.568Z,55
2022-12-23T04:18:30.022Z,55
2022-12-23T04:20:00.394Z,56
2022-12-23T04:21:30.836Z,56
2022-12-23T04:23:01.213Z,56
2022-12-23T04:24:31.703Z,56
2022-12-23T04:26:34.146Z,56
2022-12-23T04:28:04.542Z,56
2022-12-23T04:29:35.011Z,56
2022-12-23T04:31:05.394Z,56
2022-12-23T04:32:35.814Z,56
2022-12-23T04:34:06.269Z,56
2022-12-23T04:35:36.634Z,56
2022-12-23T04:37:06.961Z,56
2022-12-23T04:38:37.420Z,56
2022-12-23T04:40:07.796Z,56
2022-12-23T04:41:38.259Z,56
2022-12-23T04:43:08.659Z,56
2022-12-23T04:44:39.116Z,56
2022-12-23T04:46:09.608Z,56
2022-12-23T04:47:39.988Z,56
2022-12-23T04:49:10.368Z,56
2022-12-23T04:50:40.733Z,56
2022-12-23T04:52:11.150Z,57
2022-12-23T04:53:41.626Z,57
2022-12-23T04:55:44.036Z,57
2022-12-23T04:57:14.366Z,57
2022-12-23T04:58:44.705Z,57
2022-12-23T05:00:15.107Z,57
2022-12-23T05:01:45.692Z,57
2022-12-23T05:03:16.110Z,57
2022-12-23T05:04:46.392Z,57
2022-12-23T05:06:16.780Z,57
2022-12-23T05:07:47.225Z,57
2022-12-23T05:09:17.668Z,57
2022-12-23T05:11:20.083Z,57
2022-12-23T05:12:50.544Z,57
2022-12-23T05:14:20.935Z,57
2022-12-23T05:15:51.391Z,57
2022-12-23T05:17:21.773Z,57
2022-12-23T05:18:52.115Z,58
2022-12-23T05:20:22.508Z,58
2022-12-23T05:21:52.916Z,58
2022-12-23T05:23:23.263Z,58
2022-12-23T05:24:53.691Z,58
2022-12-23T05:26:24.099Z,58
2022-12-23T05:27:54.524Z,58
2022-12-23T05:29:24.857Z,58
2022-12-23T05:31:27.296Z,58
2022-12-23T05:32:57.596Z,58
2022-12-23T05:34:27.954Z,58
2022-12-23T05:35:58.338Z,58
2022-12-23T05:37:28.775Z,58
2022-12-23T05:38:59.200Z,58
2022-12-23T05:40:30.175Z,58
2022-12-23T05:42:00.029Z,58
2022-12-23T05:43:30.460Z,58
2022-12-23T05:45:00.822Z,58
2022-12-23T05:46:31.253Z,58
2022-12-23T05:48:01.469Z,58
2022-12-23T05:49:31.846Z,58
2022-12-23T05:51:02.233Z,58
2022-12-23T05:52:32.647Z,58
2022-12-23T05:54:03.095Z,58
2022-12-23T05:55:33.423Z,59
2022-12-23T05:57:03.809Z,59
2022-12-23T05:58:34.246Z,59
2022-12-23T06:00:04.608Z,59
2022-12-23T06:01:35.074Z,59
2022-12-23T06:03:05.530Z,59
2022-12-23T06:04:35.744Z,59
2022-12-23T06:06:37.983Z,59
2022-12-23T06:08:08.415Z,59
2022-12-23T06:09:38.843Z,59
2022-12-23T06:11:09.213Z,59
2022-12-23T06:12:39.534Z,59
2022-12-23T06:14:09.907Z,59
2022-12-23T06:15:40.210Z,59
2022-12-23T06:17:10.585Z,59
2022-12-23T06:18:41.015Z,59
2022-12-23T06:20:18.080Z,59
2022-12-23T06:21:41.863Z,59
2022-12-23T06:23:12.062Z,59
2022-12-23T06:24:42.555Z,59
2022-12-23T06:26:44.976Z,59
2022-12-23T06:28:15.371Z,59
2022-12-23T06:29:45.769Z,59
2022-12-23T06:31:48.214Z,59
2022-12-23T06:33:18.589Z,59
2022-12-23T06:34:48.937Z,59
2022-12-23T06:36:19.327Z,59
2022-12-23T06:37:49.747Z,59
2022-12-23T06:39:20.179Z,59
2022-12-23T06:40:50.633Z,59
2022-12-23T06:42:21.113Z,59
2022-12-23T06:43:54.372Z,59
2022-12-23T06:45:21.923Z,59
2022-12-23T06:46:52.270Z,59
2022-12-23T06:48:22.669Z,59
2022-12-23T06:49:53.237Z,59
2022-12-23T06:51:23.642Z,59
2022-12-23T06:52:54.057Z,59
2022-12-23T06:54:24.336Z,59
2022-12-23T06:55:54.709Z,59
2022-12-23T06:57:24.959Z,59
2022-12-23T06:58:55.321Z,59
2022-12-23T07:00:25.594Z,59
2022-12-23T07:02:27.940Z,59
2022-12-23T07:03:58.205Z,59
2022-12-23T07:05:35.026Z,59
2022-12-23T07:09:38.332Z,59
2022-12-23T07:11:08.678Z,59
2022-12-23T07:12:38.840Z,59
2022-12-23T07:14:09.267Z,59
2022-12-23T07:15:39.735Z,59
2022-12-23T07:17:10.167Z,59
2022-12-23T07:18:40.519Z,59
2022-12-23T07:20:10.768Z,59
2022-12-23T07:22:13.176Z,59
2022-12-23T07:23:43.578Z,59
2022-12-23T07:25:13.949Z,59
2022-12-23T07:26:44.174Z,59
2022-12-23T07:28:46.633Z,59
2022-12-23T07:30:17.081Z,59
2022-12-23T07:31:47.351Z,59
2022-12-23T07:33:17.652Z,59
2022-12-23T07:34:48.077Z,59
2022-12-23T07:36:18.425Z,59
2022-12-23T07:37:48.813Z,59
2022-12-23T07:39:19.237Z,59
2022-12-23T07:40:49.473Z,59
2022-12-23T07:42:46.713Z,59
2022-12-23T07:43:50.309Z,59
2022-12-23T07:45:20.810Z,58
2022-12-23T07:46:51.128Z,58
2022-12-23T07:48:21.448Z,58
2022-12-23T07:49:51.855Z,58
2022-12-23T07:51:22.280Z,59
2022-12-23T07:52:52.483Z,58
2022-12-23T07:54:22.843Z,59
2022-12-23T07:55:56.519Z,59
2022-12-23T07:57:55.696Z,59
2022-12-23T07:59:26.112Z,59
2022-12-23T08:00:56.479Z,59
2022-12-23T08:02:27.125Z,59
2022-12-23T08:03:57.193Z,59
2022-12-23T08:05:59.622Z,59
2022-12-23T08:07:29.959Z,59
2022-12-23T08:09:00.181Z,59
2022-12-23T08:10:30.647Z,59
2022-12-23T08:12:33.085Z,59
2022-12-23T08:14:03.486Z,59
2022-12-23T08:15:33.865Z,59
2022-12-23T08:17:36.320Z,59
2022-12-23T08:19:06.745Z,59
2022-12-23T08:20:37.203Z,59
2022-12-23T08:22:07.553Z,59
2022-12-23T08:23:38.008Z,59
2022-12-23T08:25:08.234Z,59
2022-12-23T08:26:38.661Z,59
2022-12-23T08:28:41.072Z,59
2022-12-23T08:30:11.315Z,59
2022-12-23T08:32:13.912Z,59
2022-12-23T08:33:44.217Z,59
2022-12-23T08:35:14.470Z,59
2022-12-23T08:36:44.783Z,60
2022-12-23T08:38:15.114Z,59
2022-12-23T08:39:45.538Z,59
2022-12-23T08:41:15.886Z,59
2022-12-23T08:42:46.089Z,59
2022-12-23T08:44:16.509Z,59
2022-12-23T08:45:46.994Z,59
2022-12-23T08:47:17.323Z,59
2022-12-23T08:48:49.563Z,59
2022-12-23T08:50:18.013Z,60
2022-12-23T08:52:20.429Z,60
2022-12-23T08:53:53.596Z,59
2022-12-23T08:55:21.256Z,60
2022-12-23T08:56:51.598Z,60
2022-12-23T08:58:21.966Z,60
2022-12-23T09:00:24.433Z,60
2022-12-23T09:02:26.853Z,60
2022-12-23T09:03:57.183Z,59
2022-12-23T09:05:27.414Z,59
2022-12-23T09:06:57.809Z,59
2022-12-23T09:08:28.236Z,59
2022-12-23T09:09:58.470Z,59
2022-12-23T09:11:29.013Z,59
2022-12-23T09:12:59.281Z,59
2022-12-23T09:14:29.666Z,59
2022-12-23T09:16:00.159Z,59
2022-12-23T09:18:02.489Z,59
2022-12-23T09:19:32.842Z,59
2022-12-23T09:21:03.152Z,59
2022-12-23T09:22:33.536Z,59
2022-12-23T09:24:04.017Z,59
2022-12-23T09:25:34.429Z,59
2022-12-23T09:27:04.820Z,59
2022-12-23T09:28:35.099Z,59
2022-12-23T09:30:05.475Z,59
2022-12-23T09:31:37.516Z,59
2022-12-23T09:33:06.327Z,59
2022-12-23T09:34:36.724Z,60
2022-12-23T09:36:07.076Z,59
2022-12-23T09:37:37.462Z,60
2022-12-23T09:39:07.773Z,60
2022-12-23T09:40:38.088Z,60
2022-12-23T09:42:08.519Z,60
2022-12-23T09:43:38.729Z,60
2022-12-23T09:45:09.103Z,60
2022-12-23T09:46:39.556Z,60
2022-12-23T09:48:09.868Z,60
2022-12-23T09:49:40.303Z,60
2022-12-23T09:51:10.636Z,60
2022-12-23T09:53:12.883Z,60
2022-12-23T09:54:43.269Z,60
2022-12-23T09:56:13.717Z,60
2022-12-23T09:57:44.141Z,60
2022-12-23T09:59:14.666Z,60
2022-12-23T10:00:45.089Z,60
2022-12-23T10:02:15.630Z,60
2022-12-23T10:03:46.106Z,60
2022-12-23T10:05:16.383Z,60
2022-12-23T10:06:46.805Z,60
2022-12-23T10:08:17.153Z,60
2022-12-23T10:09:47.586Z,60
2022-12-23T10:11:17.985Z,60
2022-12-23T10:12:48.367Z,60
2022-12-23T10:14:50.789Z,61
2022-12-23T10:16:21.279Z,60
2022-12-23T10:17:51.569Z,60
2022-12-23T10:19:54.041Z,60
2022-12-23T10:21:24.477Z,60
2022-12-23T10:22:54.908Z,61
2022-12-23T10:24:25.250Z,61
2022-12-23T10:25:55.459Z,61
2022-12-23T10:27:26.021Z,61
2022-12-23T10:28:56.491Z,61
2022-12-23T10:30:53.736Z,61
2022-12-23T10:31:57.504Z,61
2022-12-23T10:33:27.936Z,61
2022-12-23T10:34:58.376Z,61
2022-12-23T10:36:28.943Z,61
2022-12-23T10:37:58.998Z,61
2022-12-23T10:39:29.352Z,61
2022-12-23T10:41:03.746Z,61
2022-12-23T10:42:30.197Z,61
2022-12-23T10:44:00.704Z,61
2022-12-23T10:45:31.019Z,61
2022-12-23T10:47:01.629Z,61
2022-12-23T10:49:04.019Z,60
2022-12-23T10:50:34.339Z,60
2022-12-23T10:52:04.780Z,60
2022-12-23T10:53:36.803Z,60
2022-12-23T10:55:05.661Z,61
2022-12-23T10:56:36.025Z,61
2022-12-23T10:58:06.675Z,62
2022-12-23T10:59:37.172Z,63
2022-12-23T11:01:14.088Z,64
2022-12-23T11:02:38.432Z,65
2022-12-23T11:04:08.767Z,65
2022-12-23T11:05:39.249Z,64
2022-12-23T11:07:44.891Z,65
2022-12-23T11:09:12.281Z,66
2022-12-23T11:10:42.581Z,65
2022-12-23T11:12:13.056Z,65
2022-12-23T11:13:43.514Z,66
2022-12-23T11:15:13.890Z,66
2022-12-23T11:17:16.387Z,65
2022-12-23T11:18:46.794Z,65
2022-12-23T11:20:17.430Z,66
2022-12-23T11:22:19.920Z,66
2022-12-23T11:23:50.433Z,66
2022-12-23T11:25:20.911Z,66
2022-12-23T11:26:51.111Z,66
2022-12-23T11:28:21.540Z,67
2022-12-23T11:29:52.208Z,68
2022-12-23T11:31:22.634Z,67
2022-12-23T11:32:53.002Z,67
2022-12-23T11:34:23.530Z,68
2022-12-23T11:35:53.826Z,68
2022-12-23T11:37:24.249Z,68
2022-12-23T11:38:54.732Z,68
2022-12-23T11:40:25.739Z,67
2022-12-23T11:41:56.319Z,67
2022-12-23T11:43:26.755Z,69
2022-12-23T11:45:29.175Z,69
2022-12-23T11:46:59.573Z,68
2022-12-23T11:48:30.269Z,69
2022-12-23T11:50:00.801Z,68
2022-12-23T11:51:31.253Z,68
2022-12-23T11:53:01.628Z,68
2022-12-23T11:54:32.308Z,67
2022-12-23T11:56:02.713Z,67
2022-12-23T11:57:33.184Z,67
2022-12-23T11:59:03.723Z,67
2022-12-23T12:00:34.232Z,66
2022-12-23T12:02:04.782Z,66
2022-12-23T12:04:07.317Z,66
2022-12-23T12:05:37.749Z,66
2022-12-23T12:07:08.192Z,66
2022-12-23T12:08:38.647Z,66
2022-12-23T12:10:09.210Z,66
2022-12-23T12:11:39.568Z,66
2022-12-23T12:13:10.006Z,65
2022-12-23T12:14:40.616Z,65
2022-12-23T12:16:43.165Z,65
2022-12-23T12:18:13.462Z,65
2022-12-23T12:19:44.047Z,65
2022-12-23T12:21:14.491Z,65
2022-12-23T12:22:45.321Z,65
2022-12-23T12:24:18.628Z,65
2022-12-23T12:26:18.290Z,65
2022-12-23T12:27:48.780Z,65
2022-12-23T12:29:19.165Z,65
2022-12-23T12:30:49.744Z,65
2022-12-23T12:32:20.194Z,65
2022-12-23T12:33:50.848Z,65
2022-12-23T12:35:21.511Z,65
2022-12-23T12:36:52.071Z,65
2022-12-23T12:38:22.449Z,65
2022-12-23T12:39:52.861Z,64
2022-12-23T12:41:23.505Z,64
2022-12-23T12:42:53.953Z,64
2022-12-23T12:44:24.452Z,64
2022-12-23T12:46:27.042Z,64
2022-12-23T12:48:02.281Z,64
2022-12-23T12:50:00.134Z,63
2022-12-23T12:51:30.564Z,63
2022-12-23T12:53:01.003Z,63
2022-12-23T12:55:03.457Z,63
2022-12-23T12:56:34.153Z,63
2022-12-23T12:58:04.499Z,63
2022-12-23T12:59:35.149Z,63
2022-12-23T13:01:05.485Z,63
2022-12-23T13:02:35.926Z,63
2022-12-23T13:04:06.148Z,63
2022-12-23T13:05:36.797Z,63
2022-12-23T13:07:39.313Z,63
2022-12-23T13:09:09.805Z,62
2022-12-23T13:10:40.264Z,62
2022-12-23T13:12:10.740Z,62
2022-12-23T13:13:41.131Z,62
2022-12-23T13:15:43.761Z,62
2022-12-23T13:17:46.281Z,62
2022-12-23T13:19:16.672Z,62
2022-12-23T13:20:47.057Z,62
2022-12-23T13:22:17.510Z,62
2022-12-23T13:23:47.906Z,62
2022-12-23T13:25:18.411Z,63
2022-12-23T13:26:48.931Z,63
2022-12-23T13:28:19.460Z,63
2022-12-23T13:29:53.154Z,63
2022-12-23T13:31:52.329Z,63
2022-12-23T13:33:22.884Z,63
2022-12-23T13:34:53.286Z,63
2022-12-23T13:36:23.876Z,63
2022-12-23T13:37:54.237Z,63
2022-12-23T13:39:24.612Z,63
2022-12-23T13:40:55.176Z,63
2022-12-23T13:42:25.436Z,63
2022-12-23T13:44:27.944Z,63
2022-12-23T13:46:30.755Z,63
2022-12-23T13:48:04.685Z,63
2022-12-23T13:49:31.575Z,64
2022-12-23T13:51:02.058Z,63
2022-12-23T13:52:32.526Z,63
2022-12-23T13:54:04.923Z,64
2022-12-23T13:55:33.435Z,64
2022-12-23T13:57:03.821Z,64
2022-12-23T13:58:34.235Z,64
2022-12-23T14:00:06.137Z,64
2022-12-23T14:01:35.246Z,64
2022-12-23T14:03:05.607Z,64
2022-12-23T14:04:35.880Z,64
2022-12-23T14:06:06.338Z,64
2022-12-23T14:07:36.822Z,64
2022-12-23T14:09:07.246Z,64
2022-12-23T14:10:37.658Z,64
2022-12-23T14:12:08.287Z,64
2022-12-23T14:13:38.638Z,64
2022-12-23T14:15:09.058Z,64
2022-12-23T14:16:39.483Z,64
2022-12-23T14:18:41.850Z,64
2022-12-23T14:20:12.301Z,64
2022-12-23T14:21:42.778Z,64
2022-12-23T14:23:13.187Z,64
2022-12-23T14:25:15.705Z,64
2022-12-23T14:26:46.214Z,64
2022-12-23T14:28:16.537Z,64
2022-12-23T14:29:47.007Z,64
2022-12-23T14:31:17.630Z,64
2022-12-23T14:32:47.919Z,64
2022-12-23T14:34:18.404Z,64
2022-12-23T14:35:48.747Z,64
2022-12-23T14:37:19.261Z,64
2022-12-23T14:39:21.764Z,64
2022-12-23T14:40:52.270Z,64
2022-12-23T14:42:22.648Z,64
2022-12-23T14:43:53.245Z,65
2022-12-23T14:45:23.630Z,65
2022-12-23T14:47:26.059Z,64
2022-12-23T14:49:16.150Z,64
2022-12-23T14:50:26.864Z,65
2022-12-23T14:51:57.342Z,65
2022-12-23T14:53:27.737Z,65
2022-12-23T14:55:31.404Z,65
2022-12-23T14:57:00.661Z,65
2022-12-23T14:58:31.008Z,65
2022-12-23T15:00:01.534Z,65
2022-12-23T15:01:31.781Z,65
2022-12-23T15:03:02.287Z,65
2022-12-23T15:04:32.851Z,65
2022-12-23T15:06:03.162Z,65
2022-12-23T15:07:33.645Z,65
2022-12-23T15:09:04.129Z,65
2022-12-23T15:10:34.568Z,65
2022-12-23T15:12:04.967Z,65
2022-12-23T15:13:35.516Z,65
2022-12-23T15:15:05.940Z,65
2022-12-23T15:16:36.427Z,65
2022-12-23T15:18:06.807Z,65
2022-12-23T15:19:37.288Z,65
2022-12-23T15:21:07.779Z,65
2022-12-23T15:22:38.144Z,66
2022-12-23T15:24:40.610Z,65
2022-12-23T15:26:57.523Z,65
2022-12-23T15:28:13.540Z,65
2022-12-23T15:29:43.973Z,65
2022-12-23T15:31:14.456Z,66
2022-12-23T15:32:44.597Z,65
2022-12-23T15:34:17.193Z,65
2022-12-23T15:36:17.403Z,65
2022-12-23T15:37:47.849Z,65
2022-12-23T15:39:18.290Z,66
2022-12-23T15:40:48.775Z,66
2022-12-23T15:42:19.474Z,65
2022-12-23T15:43:50.204Z,66
2022-12-23T15:45:20.661Z,65
2022-12-23T15:46:51.294Z,66
2022-12-23T15:48:21.569Z,65
2022-12-23T15:50:24.047Z,65
2022-12-23T15:52:15.164Z,65
2022-12-23T15:53:24.595Z,65
2022-12-23T15:54:55.036Z,65
2022-12-23T15:56:25.354Z,65
2022-12-23T15:57:55.598Z,65
2022-12-23T15:59:25.986Z,65
2022-12-23T16:00:56.406Z,65
2022-12-23T16:03:57.266Z,65
2022-12-23T16:05:27.491Z,65
2022-12-23T16:06:57.864Z,65
2022-12-23T16:08:29.987Z,65
2022-12-23T16:09:58.530Z,65
2022-12-23T16:12:00.960Z,65
2022-12-23T16:13:31.259Z,65
2022-12-23T16:15:01.647Z,65
2022-12-23T16:17:04.081Z,65
2022-12-23T16:18:34.360Z,65
2022-12-23T16:20:04.590Z,65
2022-12-23T16:21:34.985Z,65
2022-12-23T16:23:05.410Z,65
2022-12-23T16:24:35.837Z,65
2022-12-23T16:26:06.373Z,65
2022-12-23T16:27:36.685Z,65
2022-12-23T16:29:07.040Z,65
2022-12-23T16:30:37.265Z,65
2022-12-23T16:32:39.775Z,65
2022-12-23T16:34:10.112Z,65
2022-12-23T16:35:40.454Z,66
2022-12-23T16:37:10.686Z,65
2022-12-23T16:38:40.944Z,65
2022-12-23T16:40:11.342Z,65
2022-12-23T16:41:41.696Z,65
2022-12-23T16:43:12.005Z,65
2022-12-23T16:44:42.330Z,65
2022-12-23T16:46:12.861Z,65
2022-12-23T16:47:43.203Z,65
2022-12-23T16:49:45.641Z,65
2022-12-23T16:51:16.216Z,65
2022-12-23T16:52:46.596Z,65
2022-12-23T16:54:48.798Z,65
2022-12-23T16:56:51.266Z,65
2022-12-23T16:58:21.568Z,65
2022-12-23T16:59:52.145Z,66
2022-12-23T17:01:59.616Z,66
2022-12-23T17:03:57.026Z,66
2022-12-23T17:05:27.265Z,66
2022-12-23T17:07:29.677Z,66
2022-12-23T17:09:00.152Z,66
2022-12-23T17:10:30.455Z,66
2022-12-23T17:12:01.013Z,66
2022-12-23T17:13:31.341Z,66
2022-12-23T17:15:01.692Z,66
2022-12-23T17:16:32.548Z,66
2022-12-23T17:18:02.815Z,67
2022-12-23T17:19:33.298Z,66
2022-12-23T17:21:03.505Z,67
2022-12-23T17:23:05.859Z,67
2022-12-23T17:24:36.348Z,67
2022-12-23T17:26:06.809Z,67
2022-12-23T17:27:37.071Z,67
2022-12-23T17:29:07.506Z,67
2022-12-23T17:30:38.282Z,67
2022-12-23T17:32:08.553Z,67
2022-12-23T17:33:38.960Z,67
2022-12-23T17:35:09.481Z,67
2022-12-23T17:36:43.043Z,67
2022-12-23T17:38:10.392Z,67
2022-12-23T17:40:12.970Z,67
2022-12-23T17:41:43.463Z,67
2022-12-23T17:43:13.667Z,67
2022-12-23T17:44:44.147Z,67
2022-12-23T17:46:14.569Z,67
2022-12-23T17:47:44.806Z,67
2022-12-23T17:49:15.227Z,67
2022-12-23T17:50:45.672Z,67
2022-12-23T17:52:15.988Z,67
2022-12-23T17:53:46.852Z,67
2022-12-23T17:55:16.801Z,67
2022-12-23T17:56:47.175Z,67
2022-12-23T17:58:49.673Z,67
2022-12-23T18:00:27.965Z,67
2022-12-23T18:01:50.846Z,67
2022-12-23T18:03:20.926Z,67
2022-12-23T18:04:51.411Z,67
2022-12-23T18:06:21.856Z,67
2022-12-23T18:07:52.458Z,67
2022-12-23T18:09:22.776Z,67
2022-12-23T18:10:53.205Z,67
2022-12-23T18:12:25.158Z,67
2022-12-23T18:14:26.021Z,68
2022-12-23T18:16:28.558Z,67
2022-12-23T18:18:37.902Z,67
2022-12-23T18:20:01.527Z,67
2022-12-23T18:21:31.842Z,67
2022-12-23T18:23:02.222Z,67
2022-12-23T18:24:32.637Z,67
2022-12-23T18:26:35.182Z,67
2022-12-23T18:28:05.518Z,67
2022-12-23T18:29:36.043Z,68
2022-12-23T18:31:06.521Z,68
2022-12-23T18:32:36.920Z,68
2022-12-23T18:34:07.297Z,68
2022-12-23T18:35:37.667Z,67
2022-12-23T18:37:08.168Z,67
2022-12-23T18:38:38.516Z,67
2022-12-23T18:40:08.722Z,67
2022-12-23T18:41:39.261Z,67
2022-12-23T18:43:09.560Z,67
2022-12-23T18:44:39.942Z,68
2022-12-23T18:46:10.355Z,68
2022-12-23T18:47:40.625Z,67
2022-12-23T18:49:10.887Z,67
2022-12-23T18:50:41.375Z,68
2022-12-23T18:52:11.638Z,68
2022-12-23T18:53:42.056Z,67
2022-12-23T18:55:12.581Z,68
2022-12-23T18:56:43.032Z,67
2022-12-23T18:58:13.364Z,67
2022-12-23T18:59:43.734Z,68
2022-12-23T19:01:14.351Z,68
2022-12-23T19:02:44.632Z,68
2022-12-23T19:04:15.072Z,68
2022-12-23T19:05:45.513Z,67
2022-12-23T19:07:15.797Z,67
2022-12-23T19:08:46.163Z,68
2022-12-23T19:10:16.578Z,68
2022-12-23T19:11:46.930Z,68
2022-12-23T19:13:17.363Z,67
2022-12-23T19:14:47.582Z,68
2022-12-23T19:16:18.071Z,67
2022-12-23T19:17:48.518Z,67
2022-12-23T19:19:18.924Z,68
2022-12-23T19:20:49.416Z,68
2022-12-23T19:22:19.785Z,68
2022-12-23T19:23:50.214Z,68
2022-12-23T19:25:20.650Z,68
2022-12-23T19:27:23.119Z,68
2022-12-23T19:29:25.601Z,67
2022-12-23T19:31:28.016Z,67
2022-12-23T19:32:58.353Z,67
2022-12-23T19:35:00.841Z,67
2022-12-23T19:37:03.325Z,67
2022-12-23T19:38:33.781Z,67
2022-12-23T19:40:04.103Z,67
2022-12-23T19:41:34.572Z,67
2022-12-23T19:43:37.103Z,67
2022-12-23T19:45:07.296Z,67
2022-12-23T19:46:37.713Z,67
2022-12-23T19:48:08.178Z,67
2022-12-23T19:49:38.688Z,67
2022-12-23T19:51:08.913Z,67
2022-12-23T19:53:11.364Z,67
2022-12-23T19:54:41.685Z,67
2022-12-23T19:56:12.085Z,67
2022-12-23T19:57:42.551Z,67
2022-12-23T19:59:12.841Z,67
2022-12-23T20:00:43.127Z,67
2022-12-23T20:02:13.634Z,67
2022-12-23T20:03:44.015Z,67
2022-12-23T20:05:46.501Z,67
2022-12-23T20:07:16.896Z,67
2022-12-23T20:08:47.210Z,67
2022-12-23T20:10:17.606Z,67
2022-12-23T20:11:48.069Z,67
2022-12-23T20:13:18.319Z,67
2022-12-23T20:14:48.828Z,67
2022-12-23T20:16:19.328Z,67
2022-12-23T20:18:21.696Z,67
2022-12-23T20:20:24.324Z,67
2022-12-23T20:21:54.825Z,67
2022-12-23T20:23:25.205Z,67
2022-12-23T20:25:27.677Z,67
2022-12-23T20:26:58.045Z,67
2022-12-23T20:28:28.562Z,67
2022-12-23T20:29:58.929Z,67
2022-12-23T20:31:29.398Z,67
2022-12-23T20:32:59.754Z,67
2022-12-23T20:34:34.811Z,67
2022-12-23T20:36:00.492Z,67
2022-12-23T20:37:30.750Z,67
2022-12-23T20:39:01.202Z,67
2022-12-23T20:40:31.696Z,67
2022-12-23T20:42:02.074Z,67
2022-12-23T20:43:32.514Z,67
2022-12-23T20:45:02.952Z,67
2022-12-23T20:47:05.555Z,67
2022-12-23T20:48:35.743Z,67
2022-12-23T20:50:06.225Z,67
2022-12-23T20:51:36.688Z,67
2022-12-23T20:53:07.053Z,67
2022-12-23T20:54:37.493Z,67
2022-12-23T20:56:39.898Z,67
2022-12-23T20:58:10.328Z,67
2022-12-23T20:59:40.676Z,67
2022-12-23T21:01:11.425Z,67
2022-12-23T21:02:41.519Z,67
2022-12-23T21:04:11.882Z,67
2022-12-23T21:05:42.225Z,68
2022-12-23T21:07:12.746Z,67
2022-12-23T21:08:43.183Z,68
2022-12-23T21:10:13.666Z,67
2022-12-23T21:11:44.017Z,68
2022-12-23T21:13:14.323Z,67
2022-12-23T21:14:44.789Z,68
2022-12-23T21:16:15.302Z,67
2022-12-23T21:17:45.585Z,67
2022-12-23T21:19:15.963Z,67
2022-12-23T21:21:18.437Z,67
2022-12-23T21:22:48.876Z,67
2022-12-23T21:24:19.327Z,67
2022-12-23T21:25:49.682Z,67
2022-12-23T21:27:52.116Z,67
2022-12-23T21:29:22.564Z,67
2022-12-23T21:30:52.931Z,67
2022-12-23T21:32:23.264Z,67
2022-12-23T21:33:53.582Z,67
2022-12-23T21:35:24.049Z,67
2022-12-23T21:36:54.538Z,67
2022-12-23T21:38:24.933Z,67
2022-12-23T21:39:55.347Z,67
2022-12-23T21:41:25.682Z,67
2022-12-23T21:42:56.105Z,67
2022-12-23T21:44:26.635Z,67
2022-12-23T21:45:57.105Z,67
2022-12-23T21:47:27.478Z,67
2022-12-23T21:48:57.921Z,67
2022-12-23T21:50:28.391Z,67
2022-12-23T21:51:58.699Z,67
2022-12-23T21:53:29.149Z,67
2022-12-23T21:54:59.607Z,67
2022-12-23T21:57:02.115Z,67
2022-12-23T21:59:04.549Z,67
2022-12-23T22:01:07.115Z,67
2022-12-23T22:03:09.460Z,67
2022-12-23T22:04:39.858Z,67
2022-12-23T22:06:10.890Z,67
2022-12-23T22:08:12.819Z,67
2022-12-23T22:09:43.140Z,67
2022-12-23T22:11:13.517Z,67
2022-12-23T22:12:43.917Z,67
2022-12-23T22:14:14.340Z,67
2022-12-23T22:15:44.667Z,67
2022-12-23T22:17:15.072Z,67
2022-12-23T22:18:45.549Z,67
2022-12-23T22:20:15.984Z,67
2022-12-23T22:21:46.305Z,67
2022-12-23T22:23:16.710Z,67
2022-12-23T22:24:47.042Z,67
2022-12-23T22:26:22.265Z,67
2022-12-23T22:27:47.932Z,67